Time;durP1;ratioP1;P1;durP2;ratioP2;P2;SDS_P1;SDS_P2;PMS_P1;PMS_P2;Temp;Humidity;BMP_temperature;BMP_pressure;BME280_temperature;BME280_humidity;BME280_pressure;Samples;Min_cycle;Max_cycle;Signal;HPM_P1;HPM_P2
2022/07/25 00:01:22;;;;;;;3.50;2.28;;;23.90;60.30;;;;;;5031010;28;20053;-73
2022/07/25 00:03:50;;;;;;;2.63;2.20;;;23.80;60.30;;;;;;5030779;28;20145;-73
2022/07/25 00:06:16;;;;;;;4.65;2.80;;;23.90;60.30;;;;;;5030687;28;20477;-73
2022/07/25 00:08:43;;;;;;;3.17;2.35;;;24.70;64.20;;;;;;5030858;28;20057;-73
2022/07/25 00:11:10;;;;;;;3.42;2.63;;;23.80;60.30;;;;;;5030453;28;20053;-73
2022/07/25 00:13:37;;;;;;;3.67;2.47;;;23.80;60.30;;;;;;5010890;28;20053;-73
2022/07/25 00:16:04;;;;;;;2.72;2.25;;;24.00;60.40;;;;;;5010937;28;20411;-73
2022/07/25 00:18:31;;;;;;;3.55;2.58;;;23.80;60.30;;;;;;5010941;28;20148;-73
2022/07/25 00:20:59;;;;;;;3.53;2.70;;;23.80;60.30;;;;;;5010940;28;20099;-73
2022/07/25 00:23:26;;;;;;;3.17;2.40;;;23.70;63.40;;;;;;5010454;28;20054;-73
2022/07/25 00:25:52;;;;;;;3.65;2.60;;;23.90;60.40;;;;;;5011023;28;20060;-73
2022/07/25 00:28:19;;;;;;;2.88;2.30;;;23.80;60.30;;;;;;5030367;28;20068;-73
2022/07/25 00:30:46;;;;;;;4.18;2.53;;;23.80;60.30;;;;;;5029846;28;20045;-73
2022/07/25 00:33:13;;;;;;;3.28;2.55;;;23.80;60.40;;;;;;5031418;28;20056;-73
2022/07/25 00:35:40;;;;;;;3.65;2.55;;;23.70;63.30;;;;;;5030472;28;20534;-73
2022/07/25 00:38:08;;;;;;;3.53;2.50;;;23.80;60.40;;;;;;5031251;28;20125;-73
2022/07/25 00:40:34;;;;;;;4.00;2.90;;;23.80;60.40;;;;;;5027343;28;20487;-73
2022/07/25 00:43:01;;;;;;;3.28;2.50;;;23.80;60.40;;;;;;5010317;28;20491;-73
2022/07/25 00:45:28;;;;;;;3.75;2.20;;;23.30;63.40;;;;;;5010578;28;20064;-73
2022/07/25 00:47:55;;;;;;;3.92;2.40;;;23.80;63.50;;;;;;5010290;28;20060;-73
2022/07/25 00:50:22;;;;;;;4.03;2.80;;;23.70;60.30;;;;;;5010568;28;20071;-73
2022/07/25 00:52:48;;;;;;;3.60;2.50;;;23.80;63.50;;;;;;5009847;28;20484;-73
2022/07/25 00:55:16;;;;;;;4.13;2.78;;;23.70;60.30;;;;;;5013466;28;20042;-73
2022/07/25 00:57:43;;;;;;;3.70;2.78;;;23.80;60.40;;;;;;5030050;28;20085;-73
2022/07/25 01:00:12;;;;;;;3.80;2.45;;;23.70;60.40;;;;;;5031134;28;20149;-73
2022/07/25 01:02:39;;;;;;;3.90;2.67;;;23.80;63.30;;;;;;5029697;28;20136;-73
2022/07/25 01:05:07;;;;;;;3.17;2.65;;;22.80;62.70;;;;;;5029514;28;20092;-73
2022/07/25 01:07:34;;;;;;;3.03;2.70;;;23.70;60.40;;;;;;5030002;28;20058;-73
2022/07/25 01:10:01;;;;;;;4.35;2.70;;;24.60;64.00;;;;;;5023136;28;20050;-73
2022/07/25 01:12:29;;;;;;;3.28;2.50;;;23.70;60.40;;;;;;5009861;28;20230;-73
2022/07/25 01:14:56;;;;;;;3.92;2.60;;;23.60;60.30;;;;;;5009780;28;20061;-73
2022/07/25 01:17:23;;;;;;;3.65;2.70;;;23.70;60.40;;;;;;5009955;28;20108;-73
2022/07/25 01:19:52;;;;;;;3.17;2.88;;;23.70;60.40;;;;;;5010262;28;20056;-73
2022/07/25 01:22:20;;;;;;;3.40;2.58;;;23.70;60.40;;;;;;5009969;28;20049;-73
2022/07/25 01:24:46;;;;;;;3.08;2.60;;;23.70;60.50;;;;;;5009675;28;20060;-72
2022/07/25 01:27:13;;;;;;;4.15;2.70;;;23.70;61.00;;;;;;5027144;28;20490;-73
2022/07/25 01:29:40;;;;;;;3.78;2.90;;;23.70;63.80;;;;;;5027942;28;20064;-73
2022/07/25 01:32:07;;;;;;;3.20;2.50;;;23.70;60.50;;;;;;5029608;28;20060;-73
2022/07/25 01:34:33;;;;;;;2.95;2.63;;;22.90;62.50;;;;;;5029634;28;20053;-73
2022/07/25 01:37:00;;;;;;;3.70;2.80;;;23.60;60.40;;;;;;5029702;28;20053;-73
2022/07/25 01:39:28;;;;;;;3.35;2.70;;;23.60;61.00;;;;;;5028263;28;20175;-73
2022/07/25 01:41:55;;;;;;;2.92;2.60;;;23.60;60.40;;;;;;5012997;28;20132;-73
2022/07/25 01:44:21;;;;;;;3.20;2.50;;;23.70;60.50;;;;;;5013636;28;20081;-73
2022/07/25 01:46:48;;;;;;;2.97;2.63;;;23.60;60.50;;;;;;5013813;28;20136;-73
2022/07/25 01:49:15;;;;;;;3.83;3.00;;;23.60;60.50;;;;;;5013617;28;20056;-73
2022/07/25 01:51:42;;;;;;;4.15;3.00;;;23.30;62.10;;;;;;5013524;28;20056;-73
2022/07/25 01:54:08;;;;;;;3.53;2.83;;;23.50;63.20;;;;;;5014162;28;20083;-73
2022/07/25 01:56:36;;;;;;;4.45;2.65;;;23.60;60.50;;;;;;5033039;28;20055;-73
2022/07/25 01:59:03;;;;;;;4.18;3.17;;;23.60;60.50;;;;;;5033082;28;20053;-73
2022/07/25 02:01:30;;;;;;;4.30;3.35;;;23.60;60.50;;;;;;5034596;28;20053;-73
2022/07/25 02:03:56;;;;;;;3.08;2.78;;;23.50;64.10;;;;;;5032866;28;20081;-73
2022/07/25 02:06:23;;;;;;;4.40;3.08;;;23.60;60.50;;;;;;5033401;28;20061;-74
2022/07/25 02:08:50;;;;;;;3.10;2.40;;;23.60;60.50;;;;;;5028142;28;20048;-74
2022/07/25 02:11:17;;;;;;;4.30;2.95;;;23.60;63.90;;;;;;5013293;28;20046;-74
2022/07/25 02:13:45;;;;;;;3.20;2.90;;;23.60;60.60;;;;;;5012866;28;20060;-74
2022/07/25 02:16:11;;;;;;;3.33;3.00;;;23.60;63.50;;;;;;5013239;28;20496;-74
2022/07/25 02:18:38;;;;;;;3.85;3.08;;;23.50;60.50;;;;;;5013119;28;20137;-74
2022/07/25 02:21:06;;;;;;;3.75;3.00;;;23.50;63.90;;;;;;5013344;28;20053;-74
2022/07/25 02:23:32;;;;;;;3.30;2.80;;;23.60;60.60;;;;;;5015087;28;20414;-74
2022/07/25 02:25:59;;;;;;;3.50;2.65;;;23.60;63.90;;;;;;5012246;28;20480;-74
2022/07/25 02:28:26;;;;;;;3.70;3.10;;;23.50;63.90;;;;;;5013177;28;20136;-74
2022/07/25 02:30:54;;;;;;;3.47;3.08;;;23.60;63.80;;;;;;5012726;28;20606;-74
2022/07/25 02:33:21;;;;;;;3.08;2.75;;;23.50;60.50;;;;;;5012425;28;20054;-74
2022/07/25 02:35:49;;;;;;;4.20;3.25;;;23.50;60.50;;;;;;5012777;28;20137;-75
2022/07/25 02:38:18;;;;;;;4.22;3.00;;;23.60;63.40;;;;;;5020641;28;20387;-75
2022/07/25 02:40:45;;;;;;;3.58;3.13;;;23.40;63.50;;;;;;5032314;28;20053;-74
2022/07/25 02:43:12;;;;;;;3.47;2.97;;;23.50;63.40;;;;;;5032121;28;20121;-74
2022/07/25 02:45:38;;;;;;;3.55;2.85;;;23.50;60.50;;;;;;5032388;28;20395;-74
2022/07/25 02:48:07;;;;;;;3.78;2.92;;;23.50;60.60;;;;;;5032120;28;20137;-74
2022/07/25 02:50:36;;;;;;;3.30;3.00;;;23.50;60.50;;;;;;5032490;28;20053;-74
2022/07/25 02:53:03;;;;;;;4.13;2.97;;;23.40;63.40;;;;;;5030073;28;20072;-74
2022/07/25 02:55:30;;;;;;;3.55;3.15;;;23.60;63.50;;;;;;5032543;28;20529;-74
2022/07/25 02:57:57;;;;;;;3.83;3.20;;;23.50;60.60;;;;;;5032225;28;20136;-74
2022/07/25 03:00:23;;;;;;;3.97;2.88;;;23.50;60.60;;;;;;5031852;28;20140;-75
2022/07/25 03:02:50;;;;;;;4.50;3.13;;;23.50;64.10;;;;;;5031755;28;20132;-74
2022/07/25 03:05:18;;;;;;;3.33;3.00;;;23.40;60.60;;;;;;5033347;28;20172;-74
2022/07/25 03:07:45;;;;;;;3.38;3.03;;;23.50;60.70;;;;;;5031844;28;20069;-74
2022/07/25 03:10:12;;;;;;;3.47;3.10;;;23.40;60.60;;;;;;5033012;28;20060;-74
2022/07/25 03:12:39;;;;;;;4.57;3.03;;;23.30;63.40;;;;;;5031816;28;20128;-74
2022/07/25 03:15:07;;;;;;;3.40;3.03;;;23.40;60.60;;;;;;5031674;28;20058;-73
2022/07/25 03:17:34;;;;;;;3.63;3.22;;;23.40;60.60;;;;;;5031885;28;20061;-73
2022/07/25 03:20:01;;;;;;;4.50;3.65;;;23.30;63.70;;;;;;5031749;28;20097;-73
2022/07/25 03:22:29;;;;;;;3.42;3.13;;;23.40;60.70;;;;;;5019693;28;20141;-73
2022/07/25 03:24:56;;;;;;;3.72;3.30;;;23.40;60.70;;;;;;5011738;28;20057;-73
2022/07/25 03:27:22;;;;;;;3.97;3.58;;;23.40;60.70;;;;;;5011815;28;20499;-73
2022/07/25 03:29:49;;;;;;;3.55;3.00;;;23.40;63.50;;;;;;5011692;28;20061;-73
2022/07/25 03:32:16;;;;;;;3.80;3.20;;;23.40;60.70;;;;;;5011708;28;20054;-73
2022/07/25 03:34:42;;;;;;;4.18;3.42;;;23.40;60.70;;;;;;5012513;28;20125;-73
2022/07/25 03:37:09;;;;;;;3.50;3.08;;;23.70;64.20;;;;;;5027050;28;20057;-73
2022/07/25 03:39:37;;;;;;;3.10;2.80;;;24.10;64.10;;;;;;5032317;28;20478;-73
2022/07/25 03:42:04;;;;;;;3.97;3.45;;;23.30;60.70;;;;;;5031267;28;20045;-73
2022/07/25 03:44:31;;;;;;;4.10;3.50;;;23.30;60.70;;;;;;5030727;28;20059;-73
2022/07/25 03:46:58;;;;;;;3.70;3.30;;;23.30;60.60;;;;;;5031301;28;20112;-73
2022/07/25 03:49:25;;;;;;;4.35;3.50;;;23.30;60.60;;;;;;5031284;28;20136;-73
2022/07/25 03:51:52;;;;;;;4.00;3.40;;;23.60;62.10;;;;;;5015592;28;20521;-73
2022/07/25 03:54:18;;;;;;;4.55;3.80;;;23.30;60.70;;;;;;5012156;28;20081;-74
2022/07/25 03:56:48;;;;;;;3.40;3.10;;;23.30;60.60;;;;;;5011309;28;20061;-74
2022/07/25 03:59:16;;;;;;;3.35;3.05;;;23.40;60.70;;;;;;5012335;28;20076;-74
2022/07/25 04:01:46;;;;;;;3.47;3.15;;;23.60;62.20;;;;;;5011166;28;20092;-74
2022/07/25 04:04:12;;;;;;;4.18;3.40;;;23.30;60.70;;;;;;5010908;28;20067;-74
2022/07/25 04:06:39;;;;;;;4.00;3.30;;;23.30;60.70;;;;;;5029770;28;20057;-74
2022/07/25 04:09:06;;;;;;;3.47;3.17;;;23.20;63.80;;;;;;5030758;28;20525;-74
2022/07/25 04:11:34;;;;;;;4.22;3.40;;;23.30;60.70;;;;;;5030950;28;20058;-74
2022/07/25 04:14:03;;;;;;;4.05;3.30;;;23.30;60.70;;;;;;5030664;28;20061;-74
2022/07/25 04:16:29;;;;;;;4.20;3.40;;;23.30;60.60;;;;;;5030577;28;20132;-74
2022/07/25 04:18:56;;;;;;;3.88;3.20;;;23.30;60.60;;;;;;5032115;28;20132;-74
2022/07/25 04:21:23;;;;;;;4.05;3.65;;;23.30;60.60;;;;;;5014250;28;20066;-74
2022/07/25 04:23:50;;;;;;;3.97;3.17;;;23.30;60.60;;;;;;5010545;28;20563;-74
2022/07/25 04:26:17;;;;;;;3.88;3.22;;;22.80;63.40;;;;;;5010851;28;20064;-74
2022/07/25 04:28:43;;;;;;;3.95;3.45;;;23.30;60.60;;;;;;5010910;28;20068;-74
2022/07/25 04:31:12;;;;;;;3.55;3.25;;;23.40;60.60;;;;;;5010676;28;20049;-74
2022/07/25 04:33:39;;;;;;;4.47;3.63;;;23.40;63.20;;;;;;5010284;28;20494;-74
2022/07/25 04:36:06;;;;;;;3.50;3.20;;;23.30;60.60;;;;;;5010703;28;20085;-74
2022/07/25 04:38:33;;;;;;;3.70;3.20;;;23.30;60.60;;;;;;5010644;28;20144;-73
2022/07/25 04:41:00;;;;;;;3.95;3.53;;;23.30;60.60;;;;;;5010383;28;20183;-73
2022/07/25 04:43:27;;;;;;;3.85;3.45;;;23.30;60.60;;;;;;5010332;28;20459;-73
2022/07/25 04:45:53;;;;;;;4.00;3.50;;;23.30;63.50;;;;;;5010383;28;20063;-73
2022/07/25 04:48:22;;;;;;;3.78;3.45;;;23.30;60.60;;;;;;5012859;28;20521;-73
2022/07/25 04:50:49;;;;;;;4.05;3.55;;;23.30;60.60;;;;;;5013832;28;20067;-73
2022/07/25 04:53:15;;;;;;;3.50;3.20;;;23.20;64.00;;;;;;5029744;28;20053;-73
2022/07/25 04:55:42;;;;;;;3.60;3.17;;;23.30;60.60;;;;;;5031271;28;20045;-73
2022/07/25 04:58:09;;;;;;;4.25;3.50;;;23.30;60.60;;;;;;5030141;28;20057;-73
2022/07/25 05:00:36;;;;;;;3.97;3.58;;;23.30;60.60;;;;;;5030072;28;20065;-73
2022/07/25 05:03:03;;;;;;;3.78;3.47;;;23.30;60.60;;;;;;5021947;28;20049;-73
2022/07/25 05:05:31;;;;;;;4.60;3.80;;;23.40;64.10;;;;;;5029864;28;20110;-73
2022/07/25 05:07:58;;;;;;;3.50;3.20;;;24.10;64.00;;;;;;5029788;28;20140;-73
2022/07/25 05:10:25;;;;;;;4.20;3.17;;;23.30;60.50;;;;;;5030145;28;20064;-73
2022/07/25 05:12:52;;;;;;;3.80;3.40;;;23.00;63.80;;;;;;5030742;28;20140;-73
2022/07/25 05:15:19;;;;;;;3.30;3.00;;;23.30;60.50;;;;;;5029580;28;20053;-73
2022/07/25 05:17:47;;;;;;;3.53;3.22;;;23.30;60.40;;;;;;5030994;28;20046;-73
2022/07/25 05:20:14;;;;;;;3.42;3.13;;;23.40;63.40;;;;;;5024568;28;20092;-73
2022/07/25 05:22:42;;;;;;;5.00;3.90;;;23.50;60.50;;;;;;5030967;28;20134;-73
2022/07/25 05:25:09;;;;;;;3.75;3.30;;;23.40;60.40;;;;;;5029603;28;20140;-73
2022/07/25 05:27:36;;;;;;;3.50;3.20;;;23.30;62.60;;;;;;5031115;28;20045;-73
2022/07/25 05:30:05;;;;;;;4.07;3.58;;;23.40;60.30;;;;;;5030066;28;20129;-75
2022/07/25 05:32:31;;;;;;;3.83;3.53;;;23.40;60.30;;;;;;5029361;28;20128;-74
2022/07/25 05:34:58;;;;;;;3.70;3.13;;;23.40;60.30;;;;;;5028855;28;20394;-74
2022/07/25 05:37:25;;;;;;;3.60;3.22;;;23.50;63.20;;;;;;5029422;28;20061;-74
2022/07/25 05:39:53;;;;;;;3.97;3.30;;;23.50;63.80;;;;;;5029547;28;20069;-74
2022/07/25 05:42:20;;;;;;;3.60;3.30;;;23.40;60.10;;;;;;5029955;28;20136;-73
2022/07/25 05:44:46;;;;;;;3.53;3.22;;;23.40;60.10;;;;;;5029459;28;20128;-73
2022/07/25 05:47:13;;;;;;;4.28;3.50;;;24.30;63.90;;;;;;5030855;28;20542;-74
2022/07/25 05:49:40;;;;;;;3.80;3.40;;;23.40;63.10;;;;;;5026457;28;20050;-74
2022/07/25 05:52:07;;;;;;;3.70;3.40;;;24.10;63.70;;;;;;5010359;28;20057;-74
2022/07/25 05:54:34;;;;;;;3.78;3.33;;;23.50;60.10;;;;;;5009931;28;20141;-75
2022/07/25 05:57:02;;;;;;;3.50;3.05;;;23.50;60.00;;;;;;5010185;28;20054;-75
2022/07/25 05:59:29;;;;;;;3.78;3.38;;;23.80;63.90;;;;;;5011107;28;20048;-74
2022/07/25 06:01:56;;;;;;;3.42;3.13;;;22.50;63.10;;;;;;5009554;28;20183;-74
2022/07/25 06:04:22;;;;;;;3.55;3.25;;;23.60;59.90;;;;;;5009721;28;20080;-74
2022/07/25 06:06:51;;;;;;;4.10;3.70;;;23.70;59.80;;;;;;5010073;28;20060;-74
2022/07/25 06:09:18;;;;;;;3.85;3.45;;;23.70;59.80;;;;;;5009916;28;20073;-74
2022/07/25 06:11:45;;;;;;;3.47;3.17;;;23.80;59.70;;;;;;5009996;28;20062;-74
2022/07/25 06:14:13;;;;;;;3.58;3.28;;;23.80;59.60;;;;;;5009111;28;20460;-74
2022/07/25 06:16:40;;;;;;;3.90;3.50;;;24.00;63.20;;;;;;5009736;28;20491;-74
2022/07/25 06:19:07;;;;;;;4.03;3.63;;;23.90;62.80;;;;;;5009651;28;20053;-74
2022/07/25 06:21:34;;;;;;;3.83;3.35;;;24.00;59.40;;;;;;5008158;28;20066;-74
2022/07/25 06:24:01;;;;;;;3.72;3.33;;;24.10;59.40;;;;;;5009602;28;20475;-74
2022/07/25 06:26:28;;;;;;;3.70;3.28;;;24.10;59.30;;;;;;5009526;28;20054;-74
2022/07/25 06:28:54;;;;;;;4.20;3.33;;;24.10;63.10;;;;;;5012391;28;20141;-74
2022/07/25 06:31:22;;;;;;;5.47;3.85;;;24.20;59.20;;;;;;5013069;28;20073;-74
2022/07/25 06:33:49;;;;;;;4.03;3.40;;;24.20;59.10;;;;;;5012374;28;20049;-74
2022/07/25 06:36:16;;;;;;;3.72;3.42;;;24.20;62.40;;;;;;5012950;28;20164;-74
2022/07/25 06:38:42;;;;;;;3.50;3.20;;;24.20;59.00;;;;;;5012966;28;20049;-74
2022/07/25 06:41:14;;;;;;;6.43;3.63;;;24.20;59.00;;;;;;5012944;28;20562;-74
2022/07/25 06:43:41;;;;;;;3.97;3.55;;;24.20;58.90;;;;;;5012935;28;20054;-73
2022/07/25 06:46:07;;;;;;;3.58;3.25;;;24.20;58.90;;;;;;5013306;28;20064;-74
2022/07/25 06:48:35;;;;;;;3.40;3.10;;;24.20;58.90;;;;;;5017247;28;20063;-73
2022/07/25 06:51:02;;;;;;;3.70;3.17;;;24.30;58.90;;;;;;5033615;28;20054;-75
2022/07/25 06:53:29;;;;;;;3.67;3.38;;;24.40;63.00;;;;;;4993194;28;20129;-74
2022/07/25 06:55:56;;;;;;;3.80;3.50;;;24.30;61.80;;;;;;4993168;28;20142;-74
2022/07/25 06:58:22;;;;;;;4.68;3.50;;;24.30;58.80;;;;;;5018915;28;20140;-74
2022/07/25 07:00:49;;;;;;;4.65;3.47;;;24.50;62.00;;;;;;5013089;28;20086;-74
2022/07/25 07:03:16;;;;;;;3.78;3.40;;;24.40;58.80;;;;;;5012357;28;20057;-74
2022/07/25 07:05:44;;;;;;;3.50;3.20;;;24.40;58.70;;;;;;5012294;28;20061;-74
2022/07/25 07:08:11;;;;;;;3.90;3.20;;;24.50;58.80;;;;;;5013658;28;20466;-74
2022/07/25 07:10:39;;;;;;;4.78;3.72;;;24.50;63.30;;;;;;5013619;28;20045;-74
2022/07/25 07:13:06;;;;;;;3.80;3.40;;;24.70;63.50;;;;;;5011919;28;20491;-73
2022/07/25 07:15:33;;;;;;;5.25;3.72;;;24.70;58.70;;;;;;5012228;28;20137;-73
2022/07/25 07:18:00;;;;;;;3.90;3.47;;;24.60;61.70;;;;;;5012528;28;20172;-73
2022/07/25 07:20:26;;;;;;;3.95;3.45;;;24.80;58.60;;;;;;5012822;28;20053;-73
2022/07/25 07:22:54;;;;;;;4.30;3.47;;;24.90;58.50;;;;;;5012324;28;20141;-74
2022/07/25 07:25:22;;;;;;;4.40;3.20;;;25.00;58.40;;;;;;5011771;28;20050;-74
2022/07/25 07:27:49;;;;;;;3.97;3.35;;;25.10;58.30;;;;;;5012093;28;20475;-74
2022/07/25 07:30:16;;;;;;;4.50;3.85;;;25.20;58.30;;;;;;5012909;28;20049;-74
2022/07/25 07:32:43;;;;;;;4.25;3.80;;;25.30;58.20;;;;;;5011559;28;20133;-74
2022/07/25 07:35:11;;;;;;;4.85;3.35;;;25.30;58.10;;;;;;5011818;28;20475;-74
2022/07/25 07:37:37;;;;;;;3.95;3.50;;;25.30;62.40;;;;;;5012946;28;20046;-75
2022/07/25 07:40:07;;;;;;;4.53;3.60;;;25.50;58.10;;;;;;5012702;28;20407;-73
2022/07/25 07:42:38;;;;;;;5.05;3.28;;;25.60;61.60;;;;;;5029700;28;20081;-73
2022/07/25 07:45:11;;;;;;;4.90;3.60;;;25.70;61.40;;;;;;5024263;28;20510;-73
2022/07/25 07:47:37;;;;;;;3.90;3.20;;;25.60;58.50;;;;;;5008611;28;20064;-73
2022/07/25 07:50:05;;;;;;;4.20;3.50;;;25.60;57.80;;;;;;5012461;28;20475;-73
2022/07/25 07:52:32;;;;;;;3.97;3.50;;;25.70;57.80;;;;;;5011057;28;20060;-73
2022/07/25 07:57:44;;;;;;;4.05;3.60;;;25.70;57.70;;;;;;5027773;28;20045;-73
2022/07/25 08:00:12;;;;;;;4.53;3.60;;;25.70;57.60;;;;;;5011322;28;20057;-73
2022/07/25 08:02:42;;;;;;;4.95;3.83;;;25.80;57.70;;;;;;5011458;28;20160;-73
2022/07/25 08:05:09;;;;;;;5.07;3.70;;;25.80;57.70;;;;;;5012408;28;20411;-73
2022/07/25 08:07:36;;;;;;;5.38;3.53;;;25.80;57.60;;;;;;5012364;28;20148;-73
2022/07/25 08:10:03;;;;;;;4.35;3.63;;;25.90;57.60;;;;;;5011044;28;20654;-73
2022/07/25 08:12:30;;;;;;;4.82;3.45;;;25.90;57.60;;;;;;5011070;28;20050;-73
2022/07/25 08:14:58;;;;;;;4.50;3.53;;;26.00;57.60;;;;;;5020731;28;20045;-73
2022/07/25 08:17:25;;;;;;;5.07;3.50;;;26.00;57.50;;;;;;5015990;28;20058;-73
2022/07/25 08:19:52;;;;;;;3.85;3.38;;;26.50;61.00;;;;;;5010942;28;20081;-73
2022/07/25 08:22:19;;;;;;;3.83;3.38;;;26.00;57.50;;;;;;5010790;28;20561;-73
2022/07/25 08:24:45;;;;;;;4.07;3.67;;;26.00;57.50;;;;;;5010815;28;20140;-76
2022/07/25 08:27:12;;;;;;;4.75;3.47;;;26.10;58.90;;;;;;5012528;28;20475;-73
2022/07/25 08:29:39;;;;;;;4.43;3.60;;;26.00;57.50;;;;;;5011151;28;20096;-73
2022/07/25 08:32:07;;;;;;;4.10;3.60;;;26.00;57.50;;;;;;5011545;28;20438;-73
2022/07/25 08:34:34;;;;;;;4.10;3.50;;;26.10;61.40;;;;;;5010311;28;20132;-73
2022/07/25 08:37:01;;;;;;;3.75;3.35;;;26.00;61.10;;;;;;5014846;28;20056;-74
2022/07/25 08:39:28;;;;;;;4.47;3.20;;;26.10;57.40;;;;;;5012389;28;20057;-73
2022/07/25 08:41:56;;;;;;;3.83;3.42;;;26.30;59.00;;;;;;5010584;28;20144;-75
2022/07/25 08:44:22;;;;;;;6.50;3.70;;;26.20;60.90;;;;;;5008972;28;20052;-74
2022/07/25 08:46:49;;;;;;;4.28;3.30;;;26.10;57.30;;;;;;5008671;28;20053;-74
2022/07/25 08:49:17;;;;;;;4.03;3.50;;;26.20;60.50;;;;;;5009540;28;20172;-74
2022/07/25 08:51:44;;;;;;;7.57;3.60;;;25.90;58.40;;;;;;5012622;28;20059;-74
2022/07/25 08:54:11;;;;;;;6.03;4.05;;;26.10;57.40;;;;;;5024435;28;20045;-73
2022/07/25 08:56:39;;;;;;;8.10;4.07;;;26.10;57.40;;;;;;5030416;28;20060;-73
2022/07/25 08:59:05;;;;;;;8.48;4.60;;;26.10;57.50;;;;;;5030072;28;20136;-74
2022/07/25 09:01:32;;;;;;;14.25;5.45;;;26.10;57.50;;;;;;5031308;28;20401;-73
2022/07/25 09:04:00;;;;;;;13.10;5.50;;;25.80;60.80;;;;;;5030103;28;20054;-73
2022/07/25 09:06:28;;;;;;;12.73;5.85;;;26.00;57.60;;;;;;5030089;28;20054;-73
2022/07/25 09:08:56;;;;;;;10.10;6.00;;;26.00;57.60;;;;;;5012773;28;20144;-73
2022/07/25 09:11:27;;;;;;;9.10;5.90;;;26.00;57.60;;;;;;5010126;28;20148;-73
2022/07/25 09:13:58;;;;;;;10.85;6.05;;;24.80;60.10;;;;;;5009274;28;20042;-73
2022/07/25 09:16:29;;;;;;;11.30;5.68;;;26.20;60.50;;;;;;5007956;28;20646;-73
2022/07/25 09:19:06;;;;;;;11.13;5.43;;;25.80;57.60;;;;;;5009709;28;20514;-73
2022/07/25 09:21:34;;;;;;;12.23;5.97;;;25.80;57.60;;;;;;5012080;28;20589;-73
2022/07/25 09:24:08;;;;;;;9.50;5.45;;;25.80;57.60;;;;;;5006961;28;20046;-74
2022/07/25 09:26:43;;;;;;;8.35;5.28;;;25.70;57.60;;;;;;5010357;28;20119;-73
2022/07/25 09:29:16;;;;;;;11.30;5.20;;;25.90;60.40;;;;;;5010885;28;20402;-73
2022/07/25 09:31:43;;;;;;;10.68;5.57;;;26.10;58.60;;;;;;5010066;28;20054;-73
2022/07/25 09:34:11;;;;;;;9.02;5.13;;;25.80;57.70;;;;;;5010118;28;20100;-73
2022/07/25 09:36:42;;;;;;;7.45;5.25;;;25.70;60.20;;;;;;5009814;28;20062;-73
2022/07/25 09:39:08;;;;;;;8.10;5.13;;;25.80;57.70;;;;;;5010472;28;20068;-74
2022/07/25 09:41:36;;;;;;;8.57;5.72;;;25.80;57.70;;;;;;5010079;28;20132;-75
2022/07/25 09:44:02;;;;;;;24.58;8.85;;;25.70;57.70;;;;;;5009873;28;20042;-75
2022/07/25 09:46:29;;;;;;;29.45;11.77;;;25.70;57.70;;;;;;5009862;28;20060;-75
2022/07/25 09:48:57;;;;;;;44.17;18.63;;;25.60;60.10;;;;;;5009966;28;20057;-74
2022/07/25 09:51:24;;;;;;;84.95;35.08;;;25.70;57.80;;;;;;5009722;28;20420;-74
2022/07/25 09:53:52;;;;;;;84.85;35.03;;;25.70;60.80;;;;;;5027160;28;20418;-73
2022/07/25 09:56:19;;;;;;;47.47;21.65;;;25.60;57.90;;;;;;5029499;28;20788;-74
2022/07/25 09:58:45;;;;;;;34.22;15.55;;;25.60;58.00;;;;;;5026284;28;20114;-73
2022/07/25 10:01:14;;;;;;;29.15;12.50;;;25.60;58.00;;;;;;5009782;28;20137;-74
2022/07/25 10:03:48;;;;;;;31.55;13.43;;;25.50;58.00;;;;;;5013045;28;20129;-74
2022/07/25 10:06:19;;;;;;;26.05;12.30;;;25.60;58.20;;;;;;5012979;28;20076;-74
2022/07/25 10:08:46;;;;;;;28.40;11.95;;;25.50;58.20;;;;;;5014163;28;20068;-74
2022/07/25 10:11:21;;;;;;;24.15;11.15;;;24.20;61.00;;;;;;5012931;28;20120;-74
2022/07/25 10:13:48;;;;;;;23.08;11.18;;;25.50;58.40;;;;;;5012990;28;20049;-74
2022/07/25 10:16:16;;;;;;;21.00;10.20;;;25.50;58.40;;;;;;5010288;28;20477;-74
2022/07/25 10:18:48;;;;;;;24.92;10.98;;;25.40;58.40;;;;;;5013057;28;20053;-73
2022/07/25 10:21:15;;;;;;;19.58;10.20;;;25.60;58.50;;;;;;5010376;28;20074;-74
2022/07/25 10:23:42;;;;;;;19.73;10.30;;;25.40;58.40;;;;;;5014803;28;20552;-74
2022/07/25 10:26:09;;;;;;;20.45;9.25;;;25.50;58.50;;;;;;5013233;28;20050;-74
2022/07/25 10:28:42;;;;;;;19.52;9.60;;;25.40;58.40;;;;;;5013399;28;20065;-74
2022/07/25 10:31:17;;;;;;;18.52;9.02;;;25.40;58.40;;;;;;5032693;28;20057;-74
2022/07/25 10:33:47;;;;;;;16.70;8.73;;;25.40;58.40;;;;;;5032828;28;20057;-74
2022/07/25 10:36:13;;;;;;;17.10;8.88;;;25.40;58.40;;;;;;5019662;28;20477;-74
2022/07/25 10:38:40;;;;;;;18.40;9.50;;;25.40;58.40;;;;;;5013254;28;20064;-74
2022/07/25 10:41:09;;;;;;;19.20;9.57;;;25.40;58.40;;;;;;5043136;28;20508;-74
2022/07/25 10:43:39;;;;;;;17.00;8.80;;;25.40;58.40;;;;;;5032773;28;20063;-74
2022/07/25 10:46:18;;;;;;;18.38;9.07;;;25.40;58.40;;;;;;5032697;28;20144;-74
2022/07/25 10:48:45;;;;;;;13.85;7.72;;;25.40;58.40;;;;;;5000902;28;20137;-74
2022/07/25 10:51:12;;;;;;;17.85;9.13;;;24.90;61.40;;;;;;5014137;28;20049;-74
2022/07/25 10:53:44;;;;;;;17.15;8.13;;;24.70;59.00;;;;;;5012517;28;20057;-74
2022/07/25 10:56:13;;;;;;;16.13;8.93;;;25.30;58.40;;;;;;5013909;28;20394;-74
2022/07/25 10:58:45;;;;;;;15.45;8.77;;;25.20;61.40;;;;;;5012446;28;20488;-74
2022/07/25 11:01:13;;;;;;;16.17;8.43;;;25.30;62.30;;;;;;5032383;28;20140;-74
2022/07/25 11:03:43;;;;;;;16.25;7.55;;;25.20;60.50;;;;;;5032509;28;20061;-74
2022/07/25 11:06:11;;;;;;;17.35;8.60;;;25.30;58.40;;;;;;5031456;28;20057;-74
2022/07/25 11:08:38;;;;;;;14.80;7.90;;;25.40;58.50;;;;;;5010989;28;20129;-73
2022/07/25 11:11:04;;;;;;;15.95;7.85;;;25.40;58.50;;;;;;5012057;28;20090;-74
2022/07/25 11:13:36;;;;;;;14.20;7.85;;;25.40;58.40;;;;;;5010543;28;20140;-74
2022/07/25 11:16:03;;;;;;;12.95;7.97;;;25.50;62.10;;;;;;5011733;28;20723;-74
2022/07/25 11:18:36;;;;;;;15.15;7.80;;;25.50;62.30;;;;;;5011592;28;20085;-73
2022/07/25 11:21:04;;;;;;;13.38;7.50;;;25.40;58.40;;;;;;5012206;28;20120;-73
2022/07/25 11:23:31;;;;;;;12.52;6.65;;;25.30;60.90;;;;;;5014287;28;20128;-73
2022/07/25 11:26:08;;;;;;;13.57;7.57;;;25.20;59.00;;;;;;5011913;28;20125;-73
2022/07/25 11:28:42;;;;;;;13.05;6.60;;;25.70;61.40;;;;;;5012233;28;20137;-73
2022/07/25 11:31:09;;;;;;;12.68;7.00;;;25.40;58.30;;;;;;5011988;28;20057;-73
2022/07/25 11:33:37;;;;;;;13.32;7.43;;;25.30;61.50;;;;;;5011597;28;20058;-74
2022/07/25 11:36:04;;;;;;;11.90;6.88;;;25.40;58.30;;;;;;5011772;28;20050;-74
2022/07/25 11:38:34;;;;;;;11.20;6.28;;;25.40;58.40;;;;;;5012872;28;20058;-74
2022/07/25 11:41:01;;;;;;;11.38;6.43;;;25.50;58.40;;;;;;5011881;28;20507;-74
2022/07/25 11:43:28;;;;;;;11.98;6.70;;;25.30;60.90;;;;;;5012411;28;20054;-74
2022/07/25 11:45:59;;;;;;;9.68;6.80;;;25.40;58.40;;;;;;5011808;28;20053;-74
2022/07/25 11:48:33;;;;;;;11.00;6.20;;;25.30;61.20;;;;;;5011439;28;20147;-74
2022/07/25 11:51:10;;;;;;;11.07;6.65;;;25.40;58.40;;;;;;5012757;28;20124;-74
2022/07/25 11:53:44;;;;;;;12.18;6.93;;;25.30;58.40;;;;;;5010828;28;20054;-74
2022/07/25 11:56:15;;;;;;;10.27;6.15;;;25.30;58.40;;;;;;5010890;28;20060;-74
2022/07/25 11:58:42;;;;;;;10.48;5.88;;;25.30;58.50;;;;;;5008485;28;20053;-74
2022/07/25 12:01:14;;;;;;;10.60;6.07;;;26.20;62.10;;;;;;5010744;28;20133;-74
2022/07/25 12:03:41;;;;;;;9.85;6.10;;;26.50;62.60;;;;;;5011197;28;20061;-78
2022/07/25 12:06:10;;;;;;;11.65;6.50;;;25.20;58.40;;;;;;5011833;28;20136;-78
2022/07/25 12:08:38;;;;;;;11.02;5.57;;;25.40;58.60;;;;;;5009391;28;20045;-78
2022/07/25 12:11:15;;;;;;;10.23;5.70;;;26.50;62.00;;;;;;5031055;28;20059;-78
2022/07/25 12:13:42;;;;;;;13.23;6.10;;;25.50;61.90;;;;;;5011540;28;20125;-78
2022/07/25 12:16:09;;;;;;;11.30;6.45;;;25.40;58.60;;;;;;5010625;28;20041;-78
2022/07/25 12:18:37;;;;;;;12.10;5.97;;;25.40;58.60;;;;;;5010670;28;20053;-78
2022/07/25 12:21:04;;;;;;;9.57;5.72;;;25.40;58.70;;;;;;5011183;28;20049;-78
2022/07/25 12:23:32;;;;;;;9.40;5.20;;;25.40;58.70;;;;;;5011082;28;20407;-78
2022/07/25 12:25:58;;;;;;;11.20;5.55;;;25.40;58.60;;;;;;5011068;28;20435;-78
2022/07/25 12:28:26;;;;;;;8.80;5.30;;;26.90;62.80;;;;;;5010887;28;20053;-78
2022/07/25 12:30:53;;;;;;;11.07;4.85;;;25.20;61.90;;;;;;5010821;28;20053;-73
2022/07/25 12:33:20;;;;;;;7.45;4.85;;;25.40;58.70;;;;;;5010482;28;20545;-74
2022/07/25 12:35:47;;;;;;;9.18;4.60;;;25.40;58.70;;;;;;5010515;28;20136;-74
2022/07/25 12:38:13;;;;;;;8.25;4.50;;;25.40;61.30;;;;;;5010587;28;20478;-75
2022/07/25 12:40:41;;;;;;;8.18;4.22;;;25.40;58.70;;;;;;5010429;28;20053;-74
2022/07/25 12:43:08;;;;;;;9.60;4.03;;;25.50;58.80;;;;;;5010577;28;20479;-74
2022/07/25 12:45:35;;;;;;;8.05;4.00;;;25.50;58.90;;;;;;5010772;28;20495;-74
2022/07/25 12:48:02;;;;;;;10.15;3.90;;;25.50;59.00;;;;;;5010600;28;20088;-74